DGAAGOOY

Guest
Details From DGAA - Kotoka Intl
To GOOY - Dakar Leopold Sedar Senghor Intl
Flight Number -
Tags Generated
Created
Modified
Stats Distance 1,161 nm / 2,151 km
Max Altitude 0 ft / 0 m
Waypoints 3
Social Downloads 0
Likes 0
Share VATSIM

Download

Looking for another format? Having issues loading an existing format? Contact us
Advertisement - Login to hide

Notes

Generated

Route

DGAA YF145 GOOY

ID Type Via Altitude Latitude Longitude Leg Dist Tot Dist Heading (true) Name
O DGAA APT - 0 ft / 0 m 5.59096˚ -0.17264˚ - 0 nm - -
YF145 FIX - 0 ft / 0 m 14.64872˚ -17.33385˚ 1150 nm 1150 nm 300° / 296° -
O GOOY APT - 0 ft / 0 m 14.73171˚ -17.50427˚ 11 nm 1161 nm 297° / 297° -

Altitude Profile

Advertisement - Login to hide

Weather


0- 5 10 15 20 25 30 35+ Temperature / ° C

Clouds and Precipitation
Forecast for 2017-12-12 12:00 UTC. Updated 40 minutes ago

Ground ~20,000 ft ~40,000 ft Winds

DGAA

Details ICAO DGAA (ACC)
Name Accra_Kotoka_Intl
Region Ghana
Timezone Africa/Accra (UTC+0.0)
Stats Elevation 204 ft / 62 m (AMSL)
Location 5.602578° -0.167602°
Runways 1
Magnetic Variation 3.421° W

METAR

Not found

TAF

TAF DGAA 120500Z 1206/1312 28005KT 3000 BR FEW015 FM121000 14010KT 3000 HZ SCT020 BECMG 1219/1221 8000 NSC BECMG 1223/1301 27005KT 9999 FEW012

Decode

Departure Runways

ID Width Length Bearing (true) Bearing (mag) Surface Threshold Offset Overrun Length
03 200 ft / 61 m 11,176 ft / 3,406 m 22.00° 25.42° Asphalt 0 ft / 0 m 351 ft / 107 m
21 200 ft / 61 m 11,176 ft / 3,406 m 202.00° 205.42° Asphalt 1,355 ft / 413 m 0 ft / 0 m

GOOY

Details ICAO GOOY (DKR)
Name Dakar Leopold Sedar Senghor Intl
Region Senegal
Timezone Africa/Dakar (UTC+0.0)
Stats Elevation 85 ft / 26 m (AMSL)
Location 14.739711° -17.490226°
Runways 2
Magnetic Variation 7.348° W

METAR

GOOY 121000Z 36013KT 6000 NSC 25/15 Q1015

Decode

TAF

TAF GOOY 120530Z 1206/1312 02010KT 6000 NSC= TAF GBYD 120530Z 1206/1312 02008KT 8000 NSC

Decode

Destination Runways

ID Width Length Bearing (true) Bearing (mag) Surface Threshold Offset Overrun Length
03 98 ft / 30 m 4,921 ft / 1,500 m 22.31° 29.66° Asphalt 0 ft / 0 m 98 ft / 30 m
18 148 ft / 45 m 11,511 ft / 3,509 m 172.57° 179.92° Asphalt 525 ft / 160 m 197 ft / 60 m
21 98 ft / 30 m 4,921 ft / 1,500 m 202.31° 209.66° Asphalt 0 ft / 0 m 1,590 ft / 485 m
36 148 ft / 45 m 11,511 ft / 3,509 m 352.57° 359.92° Asphalt 0 ft / 0 m 197 ft / 60 m

Approach Navaids

Runway Type Ident Frequency Range Bearing (true) Bearing (mag) Slope Elevation
36 Localiser YF 110.30 MHz 18 nm / 33 km 352.33° 359.67° - 65 ft / 20 m (AMSL)
36 Glidescope YF 110.30 MHz 10 nm / 19 km 352.57° 359.92° 3.01° 73 ft / 22 m (AMSL)
36 DME YF 110.30 MHz 18 nm / 33 km - - - 73 ft / 22 m (AMSL)

Popular Alternatives